Hartville, Ohio
Current Conditions -  °F | °C
As of 12:51 AM on Friday 19 Dec 2014 (Local Time) from KCAK Reporting Station
Freezing Drizzle Freezing Drizzle  
Wind Chill: 21°   Ceiling: 500
Heat Index: 29°   Visibility: 3mi
Dew Point: 25°   Wind: 8mph
Humidity: 85%   Direction: 260°W
Pressure: 30.14"   Gusts: NA
Location:  40.96°N, 81.33°W
Report Text: KCAK 190551Z 26007KT 3SM -FZDZ BR OVC005 M02/M04 A3014 RMK AO2 FZDZB08 SLP222 P0000 60000 T10171039 11017 21022 58001
Loading
Personal Weather Stations






























Interactive Weather Map New forecast layout! Learn more

10-Day Weather Forecast

Advertisements
Track Severe Weather on mobile